Weather at Los Angeles International Airport

Public forecast

Using degrees Fahrenheit for public forecast. Weather courtesy of forecast.io.

Current aviation weather report (METAR) for Los Angeles International Airport

Retrieved 2022/05/23 08:53 UTC (19 minutes ago):

KLAX 230853Z 24004KT 10SM FEW011 13/11 A2996 RMK AO2 SLP144 T01330106 56016

Aviation forecast (TAF) for Los Angeles International Airport

Retrieved 2022/05/23 06:54 UTC (2 hours ago):

TAF KLAX 230551Z 2306/2412 VRB03KT P6SM SCT012 FM230900 VRB03KT P6SM OVC008 FM231500 24006KT P6SM BKN012 FM232000 26012KT P6SM SCT012 FM240300 24006KT P6SM SCT010 FM240600 15003KT P6SM OVC008